Time;durP1;ratioP1;P1;durP2;ratioP2;P2;SDS_P1;SDS_P2;PMS_P1;PMS_P2;Temp;Humidity;BMP_temperature;BMP_pressure;BME280_temperature;BME280_humidity;BME280_pressure;Samples;Min_cycle;Max_cycle;Signal;HPM_P1;HPM_P2
2022/12/02 00:01:16;;;;;;;7.88;6.40;;;8.40;91.50;;;;;;4988438;28;20544;-51
2022/12/02 00:03:45;;;;;;;11.33;6.73;;;8.40;91.50;;;;;;5034993;28;20759;-50
2022/12/02 00:06:22;;;;;;;12.23;8.15;;;8.40;91.50;;;;;;5022417;28;20476;-49
2022/12/02 00:08:54;;;;;;;10.40;7.43;;;8.40;91.50;;;;;;5002788;28;20222;-50
2022/12/02 00:11:27;;;;;;;8.55;6.50;;;8.40;91.50;;;;;;5013987;28;20504;-50
2022/12/02 00:13:58;;;;;;;8.48;6.65;;;8.40;91.50;;;;;;4999322;28;20297;-49
2022/12/02 00:16:27;;;;;;;14.50;9.63;;;8.40;91.50;;;;;;5002811;28;20245;-49
2022/12/02 00:18:56;;;;;;;12.60;7.90;;;8.40;91.40;;;;;;4988412;28;20685;-48
2022/12/02 00:21:26;;;;;;;11.55;7.90;;;8.40;91.40;;;;;;5007458;28;20465;-49
2022/12/02 00:23:55;;;;;;;11.43;8.00;;;8.30;91.40;;;;;;5010664;28;20605;-48
2022/12/02 00:26:23;;;;;;;11.65;6.28;;;8.30;91.40;;;;;;5018042;28;20476;-50
2022/12/02 00:28:52;;;;;;;11.23;7.65;;;8.30;91.40;;;;;;5026111;28;20285;-50
2022/12/02 00:31:22;;;;;;;9.57;6.85;;;8.30;91.40;;;;;;5017328;28;20770;-50
2022/12/02 00:33:50;;;;;;;10.80;7.40;;;8.40;91.40;;;;;;5026594;28;20240;-50
2022/12/02 00:36:19;;;;;;;9.77;6.68;;;8.30;91.40;;;;;;5017436;28;20539;-51
2022/12/02 00:38:49;;;;;;;10.90;7.90;;;8.40;91.40;;;;;;5021971;28;20299;-50
2022/12/02 00:41:18;;;;;;;9.90;7.10;;;8.30;91.40;;;;;;5041465;28;20719;-51
2022/12/02 00:46:33;;;;;;;9.48;6.90;;;8.30;91.40;;;;;;5017089;28;20271;-50
2022/12/02 00:49:05;;;;;;;11.65;6.95;;;8.30;91.40;;;;;;5017734;28;20661;-51
2022/12/02 00:51:35;;;;;;;6.60;5.50;;;8.30;91.40;;;;;;5022298;28;20222;-50
2022/12/02 00:54:05;;;;;;;9.35;7.10;;;8.30;91.40;;;;;;4993137;28;20597;-52
2022/12/02 00:56:35;;;;;;;11.50;6.53;;;8.30;91.40;;;;;;5038714;28;20225;-48
2022/12/02 00:59:05;;;;;;;9.68;6.75;;;8.30;91.40;;;;;;5004551;28;20217;-49
2022/12/02 01:01:35;;;;;;;11.60;6.60;;;8.30;91.40;;;;;;5005674;28;20213;-51
2022/12/02 01:04:05;;;;;;;8.55;6.07;;;8.30;91.40;;;;;;4997889;28;20461;-49
2022/12/02 01:06:34;;;;;;;8.23;6.43;;;8.30;91.40;;;;;;5018675;28;20248;-49
2022/12/02 01:09:04;;;;;;;11.00;8.00;;;8.30;91.40;;;;;;5025080;28;20436;-50
2022/12/02 01:11:32;;;;;;;8.20;6.07;;;8.30;91.40;;;;;;5016824;28;20252;-51
2022/12/02 01:14:01;;;;;;;10.10;7.00;;;8.30;91.40;;;;;;5025918;28;20632;-49
2022/12/02 01:16:30;;;;;;;10.65;6.95;;;8.30;91.40;;;;;;5017900;28;20538;-49
2022/12/02 01:18:59;;;;;;;9.57;6.65;;;8.30;91.40;;;;;;5022931;28;20260;-49
2022/12/02 01:21:27;;;;;;;10.52;6.50;;;8.30;91.40;;;;;;5021428;28;20771;-50
2022/12/02 01:23:56;;;;;;;7.97;6.10;;;8.30;91.40;;;;;;5018760;28;20229;-49
2022/12/02 01:26:26;;;;;;;9.90;6.60;;;8.30;91.40;;;;;;5014022;28;20224;-52
2022/12/02 01:28:55;;;;;;;9.05;6.32;;;8.30;91.40;;;;;;5005671;28;20213;-49
2022/12/02 01:31:23;;;;;;;8.70;6.20;;;8.30;91.40;;;;;;5003812;28;20218;-51
2022/12/02 01:33:52;;;;;;;7.53;6.10;;;8.30;91.40;;;;;;5005654;28;21022;-50
2022/12/02 01:36:21;;;;;;;9.15;6.30;;;8.30;91.40;;;;;;5016398;28;20221;-50
2022/12/02 01:38:50;;;;;;;9.60;6.28;;;8.30;91.40;;;;;;5024030;28;20268;-51
2022/12/02 01:41:19;;;;;;;8.30;6.43;;;8.30;91.40;;;;;;5013565;28;20226;-50
2022/12/02 01:43:49;;;;;;;7.85;5.80;;;8.30;91.40;;;;;;5005904;28;20704;-48
2022/12/02 01:46:18;;;;;;;9.73;6.60;;;8.30;91.40;;;;;;5005201;28;20607;-52
2022/12/02 01:48:48;;;;;;;8.30;5.88;;;8.30;91.40;;;;;;5020595;28;20197;-49
2022/12/02 01:51:18;;;;;;;8.55;6.45;;;8.30;91.40;;;;;;5018123;28;20232;-49
2022/12/02 01:53:47;;;;;;;8.25;5.80;;;8.30;91.40;;;;;;5011728;28;20217;-50
2022/12/02 01:56:16;;;;;;;8.23;5.50;;;8.30;91.40;;;;;;5041463;28;20243;-50
2022/12/02 01:58:45;;;;;;;7.60;6.05;;;8.30;91.40;;;;;;5017177;28;20648;-50
2022/12/02 02:01:27;;;;;;;9.98;7.00;;;8.30;91.40;;;;;;5023832;28;20202;-51
2022/12/02 02:03:56;;;;;;;7.75;6.38;;;8.30;91.40;;;;;;5017838;28;20217;-50
2022/12/02 02:06:26;;;;;;;8.18;5.40;;;8.30;91.40;;;;;;5012897;28;20218;-51
2022/12/02 02:08:55;;;;;;;9.50;6.10;;;8.30;91.40;;;;;;4996434;28;20202;-50
2022/12/02 02:11:25;;;;;;;8.07;6.03;;;8.30;91.40;;;;;;5021013;28;20214;-51
2022/12/02 02:13:59;;;;;;;9.02;6.30;;;8.30;91.40;;;;;;5005209;28;20245;-49
2022/12/02 02:16:29;;;;;;;8.60;6.13;;;8.30;91.40;;;;;;5015698;28;20213;-49
2022/12/02 02:18:59;;;;;;;7.65;6.43;;;8.30;91.40;;;;;;5025376;28;20679;-50
2022/12/02 02:21:32;;;;;;;9.40;6.20;;;8.30;91.40;;;;;;5012371;28;20213;-50
2022/12/02 02:24:03;;;;;;;9.38;6.10;;;8.30;91.40;;;;;;5004393;28;20571;-50
2022/12/02 02:26:35;;;;;;;9.50;6.40;;;8.30;91.40;;;;;;4990093;28;20634;-48
2022/12/02 02:29:04;;;;;;;8.10;6.15;;;8.30;91.40;;;;;;5007448;28;20561;-55
2022/12/02 02:31:33;;;;;;;9.90;5.40;;;8.30;91.40;;;;;;5031028;28;20221;-49
2022/12/02 02:34:02;;;;;;;10.18;5.88;;;8.30;91.30;;;;;;5029980;28;20338;-54
2022/12/02 02:36:31;;;;;;;8.00;6.17;;;8.30;91.40;;;;;;5027970;28;20217;-52
2022/12/02 02:39:02;;;;;;;8.80;6.50;;;8.30;91.40;;;;;;5024499;28;20535;-52
2022/12/02 02:41:32;;;;;;;6.72;5.28;;;8.30;91.40;;;;;;5013002;28;20478;-49
2022/12/02 02:44:01;;;;;;;8.05;6.10;;;8.30;91.40;;;;;;5028779;28;20299;-49
2022/12/02 02:46:30;;;;;;;7.50;6.07;;;8.30;91.40;;;;;;5021305;28;20241;-51
2022/12/02 02:48:59;;;;;;;8.60;6.35;;;8.30;91.40;;;;;;5028322;28;20189;-50
2022/12/02 02:51:28;;;;;;;6.60;5.10;;;8.30;91.40;;;;;;5049788;28;20217;-49
2022/12/02 02:53:58;;;;;;;8.38;5.63;;;8.30;91.40;;;;;;5057448;28;20217;-52
2022/12/02 02:56:28;;;;;;;9.20;5.93;;;8.30;91.30;;;;;;5024786;28;20221;-51
2022/12/02 02:58:57;;;;;;;8.20;5.70;;;8.30;91.40;;;;;;5000722;28;20685;-51
2022/12/02 03:01:28;;;;;;;9.70;6.25;;;8.30;91.40;;;;;;5038907;28;20467;-50
2022/12/02 03:04:03;;;;;;;9.57;5.60;;;8.30;91.40;;;;;;5008831;28;20297;-49
2022/12/02 03:06:33;;;;;;;7.75;5.95;;;8.30;91.30;;;;;;5001041;28;20289;-49
2022/12/02 03:09:04;;;;;;;7.87;6.00;;;8.30;91.40;;;;;;5007914;28;20201;-48
2022/12/02 03:11:36;;;;;;;8.63;5.95;;;8.30;91.40;;;;;;5021597;28;20468;-52
2022/12/02 03:14:06;;;;;;;7.15;5.20;;;8.20;91.30;;;;;;5026401;28;20220;-51
2022/12/02 03:16:34;;;;;;;11.80;5.63;;;8.20;91.30;;;;;;5006453;28;20312;-49
2022/12/02 03:19:04;;;;;;;9.25;5.88;;;8.20;91.30;;;;;;5008269;28;20190;-49
2022/12/02 03:21:33;;;;;;;6.95;5.47;;;8.20;91.30;;;;;;5006925;28;20252;-50
2022/12/02 03:24:04;;;;;;;8.93;5.95;;;8.20;91.30;;;;;;5058433;28;20271;-51
2022/12/02 03:26:35;;;;;;;9.18;6.53;;;8.20;91.30;;;;;;5024152;28;20249;-50
2022/12/02 03:29:05;;;;;;;7.95;5.97;;;8.20;91.30;;;;;;5007812;28;20276;-49
2022/12/02 03:31:34;;;;;;;7.53;5.47;;;8.30;91.30;;;;;;5040264;28;20260;-50
2022/12/02 03:34:03;;;;;;;9.27;6.50;;;8.30;91.40;;;;;;5032889;28;20642;-50
2022/12/02 03:36:32;;;;;;;15.15;7.60;;;8.20;91.30;;;;;;5007567;28;20558;-51
2022/12/02 03:39:01;;;;;;;8.90;6.05;;;8.20;91.30;;;;;;5003733;28;20199;-50
2022/12/02 03:41:31;;;;;;;8.63;6.80;;;8.20;91.30;;;;;;5000247;28;20228;-50
2022/12/02 03:44:01;;;;;;;9.50;6.15;;;8.20;91.30;;;;;;4991793;28;21244;-48
2022/12/02 03:46:30;;;;;;;10.25;6.07;;;8.20;91.30;;;;;;5000422;28;20305;-50
2022/12/02 03:49:01;;;;;;;9.48;5.85;;;8.20;91.30;;;;;;5007783;28;20198;-49
2022/12/02 03:51:33;;;;;;;9.23;5.65;;;8.20;91.30;;;;;;5011472;28;20700;-50
2022/12/02 03:54:02;;;;;;;9.70;6.43;;;8.20;91.30;;;;;;5042609;28;20739;-49
2022/12/02 03:56:35;;;;;;;7.18;5.55;;;8.20;91.30;;;;;;5009658;28;20282;-50
2022/12/02 03:59:06;;;;;;;8.48;6.13;;;8.20;91.30;;;;;;5026244;28;20563;-51
2022/12/02 04:01:38;;;;;;;6.85;5.90;;;8.20;91.30;;;;;;5042862;28;20279;-49
2022/12/02 04:04:07;;;;;;;9.75;6.22;;;8.20;91.30;;;;;;5025199;28;20496;-50
2022/12/02 04:06:37;;;;;;;7.40;5.87;;;8.20;91.30;;;;;;5027979;28;20213;-50
2022/12/02 04:09:05;;;;;;;8.90;5.93;;;8.20;91.30;;;;;;5026155;28;20750;-51
2022/12/02 04:11:34;;;;;;;8.35;5.85;;;8.20;91.30;;;;;;5009834;28;20273;-50
2022/12/02 04:14:02;;;;;;;8.65;6.28;;;8.20;91.30;;;;;;5004150;28;20253;-51
2022/12/02 04:16:32;;;;;;;7.45;5.63;;;8.20;91.30;;;;;;5022987;28;20252;-51
2022/12/02 04:19:01;;;;;;;8.90;5.55;;;8.20;91.30;;;;;;5008496;28;20590;-50
2022/12/02 04:21:30;;;;;;;9.90;6.53;;;8.20;91.30;;;;;;4998111;28;20232;-51
2022/12/02 04:23:58;;;;;;;6.85;5.20;;;8.20;91.30;;;;;;5005984;28;20261;-48
2022/12/02 04:26:27;;;;;;;8.63;5.38;;;8.20;91.30;;;;;;5006114;28;20737;-49
2022/12/02 04:28:56;;;;;;;9.48;6.70;;;8.20;91.30;;;;;;5006360;28;20210;-50
2022/12/02 04:31:25;;;;;;;9.02;5.65;;;8.20;91.30;;;;;;5037102;28;20210;-50
2022/12/02 04:33:55;;;;;;;10.20;7.38;;;8.20;91.30;;;;;;4998591;28;20788;-50
2022/12/02 04:36:24;;;;;;;7.03;5.63;;;8.20;91.30;;;;;;4998014;28;20221;-49
2022/12/02 04:38:52;;;;;;;8.90;5.50;;;8.20;91.30;;;;;;4992714;28;20725;-50
2022/12/02 04:41:21;;;;;;;8.77;5.65;;;8.20;91.30;;;;;;5006786;28;20851;-49
2022/12/02 04:43:50;;;;;;;8.15;5.65;;;8.20;91.30;;;;;;5000077;28;20647;-51
2022/12/02 04:46:18;;;;;;;8.60;6.68;;;8.20;91.30;;;;;;4994424;28;20869;-51
2022/12/02 04:48:47;;;;;;;7.22;5.30;;;8.20;91.30;;;;;;5001628;28;20210;-52
2022/12/02 04:51:18;;;;;;;5.75;4.88;;;8.20;91.30;;;;;;5004714;28;20233;-50
2022/12/02 04:53:46;;;;;;;10.98;6.22;;;8.20;91.30;;;;;;5000882;28;20829;-51
2022/12/02 04:56:15;;;;;;;9.73;6.20;;;8.20;91.30;;;;;;4978311;28;20778;-50
2022/12/02 04:58:43;;;;;;;7.47;5.65;;;8.20;91.30;;;;;;5033789;28;20341;-50
2022/12/02 05:01:12;;;;;;;8.70;5.60;;;8.20;91.30;;;;;;5003347;28;20661;-51
2022/12/02 05:03:41;;;;;;;8.15;6.13;;;8.20;91.30;;;;;;5000680;28;20871;-50
2022/12/02 05:06:09;;;;;;;7.80;5.35;;;8.20;91.30;;;;;;5006891;28;20538;-50
2022/12/02 05:08:40;;;;;;;8.25;5.88;;;8.20;91.30;;;;;;4990778;28;20301;-51
2022/12/02 05:11:09;;;;;;;7.07;5.28;;;8.20;91.30;;;;;;4997632;28;20676;-50
2022/12/02 05:13:38;;;;;;;7.55;4.95;;;8.20;91.30;;;;;;5006884;28;20210;-49
2022/12/02 05:16:07;;;;;;;6.80;5.20;;;8.10;91.20;;;;;;5013438;28;20303;-50
2022/12/02 05:18:36;;;;;;;6.97;5.55;;;8.20;91.30;;;;;;5026952;28;20178;-50
2022/12/02 05:21:05;;;;;;;8.00;5.60;;;8.20;91.30;;;;;;5027009;28;20190;-51
2022/12/02 05:23:33;;;;;;;7.00;5.13;;;8.10;91.20;;;;;;5028332;28;20213;-51
2022/12/02 05:26:04;;;;;;;7.07;5.93;;;8.10;91.20;;;;;;5036709;28;20676;-50
2022/12/02 05:28:33;;;;;;;8.05;5.35;;;8.10;91.20;;;;;;5039818;28;20217;-50
2022/12/02 05:31:01;;;;;;;9.82;5.55;;;8.10;91.20;;;;;;5038392;28;20196;-51
2022/12/02 05:33:30;;;;;;;7.35;4.95;;;8.10;91.20;;;;;;5038494;28;20220;-51
2022/12/02 05:36:02;;;;;;;6.82;5.43;;;8.10;91.20;;;;;;5032269;28;20213;-50
2022/12/02 05:38:31;;;;;;;9.48;5.22;;;8.10;91.20;;;;;;5038676;28;20193;-49
2022/12/02 05:40:59;;;;;;;7.47;5.45;;;8.10;91.20;;;;;;5040498;28;20553;-50
2022/12/02 05:43:36;;;;;;;8.63;6.15;;;8.10;91.20;;;;;;5040678;28;20735;-51
2022/12/02 05:46:12;;;;;;;8.80;5.57;;;8.10;91.20;;;;;;5016745;28;20681;-49
2022/12/02 05:48:41;;;;;;;6.28;5.10;;;8.10;91.20;;;;;;5025045;28;20259;-50
2022/12/02 05:51:12;;;;;;;7.35;5.90;;;8.10;91.20;;;;;;5018069;28;21047;-49
2022/12/02 05:53:43;;;;;;;7.35;5.38;;;8.10;91.20;;;;;;5021479;28;20298;-50
2022/12/02 05:56:13;;;;;;;7.57;5.53;;;8.10;91.20;;;;;;5006484;28;20205;-50
2022/12/02 05:58:43;;;;;;;7.90;5.70;;;8.10;91.20;;;;;;5019245;28;20279;-51
2022/12/02 06:01:22;;;;;;;6.65;5.40;;;8.10;91.20;;;;;;5014525;28;20241;-50
2022/12/02 06:03:51;;;;;;;7.68;5.35;;;8.10;91.20;;;;;;5009244;28;20222;-50
2022/12/02 06:06:24;;;;;;;6.75;5.63;;;8.10;91.20;;;;;;5010432;28;20625;-50
2022/12/02 06:08:55;;;;;;;7.80;5.05;;;8.10;91.20;;;;;;5007558;28;20206;-50
2022/12/02 06:11:28;;;;;;;8.65;5.05;;;8.10;91.20;;;;;;5000436;28;20222;-50
2022/12/02 06:14:03;;;;;;;6.80;5.68;;;8.10;91.20;;;;;;5017533;28;20216;-50
2022/12/02 06:16:33;;;;;;;6.07;4.57;;;8.10;91.20;;;;;;5016316;28;20243;-49
2022/12/02 06:19:08;;;;;;;5.88;4.80;;;8.10;91.20;;;;;;5017648;28;20241;-51
2022/12/02 06:21:37;;;;;;;7.95;5.32;;;8.10;91.20;;;;;;5024018;28;20221;-50
2022/12/02 06:24:10;;;;;;;8.25;5.22;;;8.10;91.20;;;;;;5016789;28;20272;-50
2022/12/02 06:26:38;;;;;;;6.55;5.45;;;8.10;91.20;;;;;;5024365;28;20221;-49
2022/12/02 06:29:17;;;;;;;7.72;4.40;;;8.10;91.20;;;;;;5007542;28;20260;-51
2022/12/02 06:31:45;;;;;;;6.25;5.18;;;8.10;91.20;;;;;;5019419;28;20217;-48
2022/12/02 06:34:34;;;;;;;6.80;4.60;;;8.10;91.20;;;;;;5008912;28;20245;-50
2022/12/02 06:37:13;;;;;;;7.30;4.53;;;8.10;91.20;;;;;;5008964;28;20700;-51
2022/12/02 06:39:44;;;;;;;8.25;5.88;;;8.10;91.20;;;;;;5007877;28;20205;-50
2022/12/02 06:42:36;;;;;;;8.50;5.32;;;8.10;91.20;;;;;;5009739;28;20297;-49
2022/12/02 06:45:21;;;;;;;9.48;5.60;;;8.10;91.20;;;;;;5004159;28;20290;-49
2022/12/02 06:48:31;;;;;;;6.82;5.20;;;8.10;91.20;;;;;;5020508;28;20218;-51
2022/12/02 06:51:12;;;;;;;7.80;6.03;;;8.10;91.20;;;;;;5028646;28;20251;-50
2022/12/02 06:53:41;;;;;;;7.20;4.68;;;8.10;91.20;;;;;;5018980;28;20209;-49
2022/12/02 06:56:20;;;;;;;7.53;5.43;;;8.10;91.20;;;;;;5059098;28;20217;-49
2022/12/02 06:58:55;;;;;;;8.48;5.40;;;8.10;91.20;;;;;;5022859;28;20636;-49
2022/12/02 07:01:33;;;;;;;9.98;5.35;;;8.10;91.20;;;;;;5024782;28;20221;-50
2022/12/02 07:04:36;;;;;;;7.00;5.45;;;8.10;91.20;;;;;;5027904;28;20223;-49
2022/12/02 07:07:21;;;;;;;8.15;5.05;;;8.10;91.20;;;;;;5025160;28;20225;-49
2022/12/02 07:09:54;;;;;;;6.93;4.82;;;8.10;91.20;;;;;;5006915;28;20730;-49
2022/12/02 07:12:25;;;;;;;6.95;4.80;;;8.10;91.20;;;;;;5008738;28;20252;-49
2022/12/02 07:14:56;;;;;;;6.70;4.72;;;8.00;91.10;;;;;;5003750;28;20221;-50
2022/12/02 07:17:30;;;;;;;7.65;5.65;;;8.00;91.10;;;;;;4999375;28;20217;-51
2022/12/02 07:20:02;;;;;;;10.80;5.95;;;8.10;91.20;;;;;;5008159;28;20194;-50
2022/12/02 07:22:36;;;;;;;8.73;5.97;;;8.00;91.10;;;;;;5007301;28;20780;-50
2022/12/02 07:25:34;;;;;;;8.27;5.53;;;8.10;91.20;;;;;;5006701;28;20239;-50
2022/12/02 07:28:22;;;;;;;9.40;5.53;;;8.00;91.10;;;;;;5007248;28;20226;-50
2022/12/02 07:30:56;;;;;;;6.43;4.80;;;8.00;91.10;;;;;;4998996;28;20210;-51
2022/12/02 07:33:27;;;;;;;7.57;5.30;;;8.00;91.10;;;;;;5007752;28;20759;-49
2022/12/02 07:35:56;;;;;;;8.48;5.88;;;8.00;91.20;;;;;;5044816;28;20221;-50
2022/12/02 07:38:24;;;;;;;8.43;5.70;;;8.00;91.20;;;;;;5035269;28;20614;-50
2022/12/02 07:41:13;;;;;;;7.82;5.72;;;8.00;91.10;;;;;;5019600;28;20221;-50
2022/12/02 07:43:42;;;;;;;8.48;5.95;;;8.00;91.10;;;;;;5007814;28;20206;-49
2022/12/02 07:46:11;;;;;;;7.22;5.53;;;8.10;91.20;;;;;;5010130;28;20225;-49
2022/12/02 07:48:41;;;;;;;9.45;5.10;;;8.00;91.10;;;;;;5028804;28;20282;-50
2022/12/02 07:51:13;;;;;;;7.82;4.93;;;8.00;91.20;;;;;;5027523;28;20201;-49
2022/12/02 07:53:42;;;;;;;8.65;5.65;;;8.00;91.10;;;;;;5027691;28;20289;-49
2022/12/02 07:56:11;;;;;;;6.90;4.80;;;8.00;91.10;;;;;;5026026;28;20663;-50
2022/12/02 07:58:40;;;;;;;6.38;5.00;;;8.00;91.60;;;;;;5027160;28;20193;-50
2022/12/02 08:01:29;;;;;;;5.53;4.50;;;8.00;91.10;;;;;;5007397;28;20217;-49
2022/12/02 08:03:59;;;;;;;7.03;5.82;;;8.00;91.10;;;;;;5008479;28;20214;-51
2022/12/02 08:06:28;;;;;;;7.80;5.70;;;8.00;91.10;;;;;;4999548;28;20314;-50
2022/12/02 08:09:05;;;;;;;7.65;3.83;;;8.00;91.10;;;;;;5006269;28;20264;-50
2022/12/02 08:11:34;;;;;;;7.88;5.80;;;8.00;91.10;;;;;;5006405;28;20221;-49
2022/12/02 08:14:03;;;;;;;9.10;5.35;;;8.00;91.10;;;;;;5006889;28;20210;-51
2022/12/02 08:16:32;;;;;;;7.45;4.70;;;8.00;91.10;;;;;;5038576;28;20708;-49
2022/12/02 08:19:02;;;;;;;9.52;6.00;;;8.00;91.10;;;;;;4999008;28;20698;-48
2022/12/02 08:21:31;;;;;;;17.83;11.88;;;8.00;91.10;;;;;;5016238;28;20443;-50
2022/12/02 08:24:00;;;;;;;14.20;8.57;;;8.00;91.10;;;;;;5025624;28;20221;-50
2022/12/02 08:26:29;;;;;;;12.60;7.38;;;8.00;91.00;;;;;;5016718;28;20693;-49
2022/12/02 08:28:58;;;;;;;11.52;7.38;;;8.00;91.00;;;;;;5006601;28;20514;-50
2022/12/02 08:31:27;;;;;;;12.27;8.05;;;8.00;91.10;;;;;;5005749;28;20225;-50
2022/12/02 08:33:56;;;;;;;13.60;8.30;;;8.00;91.00;;;;;;5006914;28;20246;-50
2022/12/02 08:36:34;;;;;;;13.40;8.45;;;8.00;91.00;;;;;;5000882;28;20229;-50
2022/12/02 08:39:05;;;;;;;12.70;7.55;;;8.00;91.00;;;;;;5005332;28;20221;-49
2022/12/02 08:41:34;;;;;;;11.02;8.02;;;8.00;91.00;;;;;;5003893;28;20279;-48
2022/12/02 08:44:04;;;;;;;12.85;9.15;;;8.00;91.00;;;;;;5015538;28;20209;-50
2022/12/02 08:46:33;;;;;;;14.45;8.40;;;8.00;91.00;;;;;;5014562;28;20226;-50
2022/12/02 08:49:05;;;;;;;11.65;7.72;;;8.00;91.00;;;;;;5023166;28;20197;-49
2022/12/02 08:51:36;;;;;;;11.63;7.78;;;8.00;91.00;;;;;;5022720;28;20588;-50
2022/12/02 08:54:05;;;;;;;18.75;11.88;;;8.00;91.00;;;;;;4998847;28;20451;-49
2022/12/02 08:56:33;;;;;;;14.05;8.48;;;8.00;91.10;;;;;;5005730;28;20228;-50
2022/12/02 08:59:03;;;;;;;18.00;8.82;;;7.90;91.00;;;;;;5005869;28;20200;-50
2022/12/02 09:01:35;;;;;;;16.67;9.10;;;8.00;91.00;;;;;;5016040;28;20222;-50
2022/12/02 09:04:04;;;;;;;16.48;9.32;;;7.90;91.00;;;;;;5003643;28;20515;-52
2022/12/02 09:06:35;;;;;;;13.50;8.38;;;7.90;91.00;;;;;;5016928;28;20757;-49
2022/12/02 09:09:05;;;;;;;9.90;7.78;;;8.00;91.00;;;;;;5015860;28;20193;-50
2022/12/02 09:11:37;;;;;;;13.38;9.10;;;7.90;91.00;;;;;;5013718;28;20685;-50
2022/12/02 09:14:06;;;;;;;15.80;9.05;;;7.90;91.00;;;;;;5004566;28;20217;-49
2022/12/02 09:16:35;;;;;;;15.38;7.97;;;7.90;91.00;;;;;;5012699;28;20534;-50
2022/12/02 09:19:04;;;;;;;15.32;8.55;;;7.90;91.00;;;;;;5006642;28;20197;-48
2022/12/02 09:21:35;;;;;;;14.23;8.50;;;7.90;91.00;;;;;;4988953;28;20631;-50
2022/12/02 09:24:04;;;;;;;11.95;8.45;;;7.90;91.00;;;;;;5006001;28;20213;-49
2022/12/02 09:26:34;;;;;;;11.95;7.88;;;7.90;91.00;;;;;;5005551;28;20706;-49
2022/12/02 09:29:04;;;;;;;13.82;8.27;;;7.90;91.00;;;;;;5007046;28;20677;-48
2022/12/02 09:31:36;;;;;;;16.05;9.30;;;7.90;91.00;;;;;;4991077;28;20221;-48
2022/12/02 09:34:05;;;;;;;14.35;8.48;;;7.90;91.00;;;;;;5006010;28;20500;-49
2022/12/02 09:36:35;;;;;;;13.68;8.02;;;7.90;91.00;;;;;;4996817;28;20692;-50
2022/12/02 09:39:05;;;;;;;12.75;7.50;;;7.90;91.00;;;;;;5006260;28;20201;-49
2022/12/02 09:41:34;;;;;;;12.35;8.32;;;7.90;91.00;;;;;;5016220;28;20219;-49
2022/12/02 09:44:04;;;;;;;13.15;7.28;;;7.90;91.00;;;;;;5027176;28;20217;-49
2022/12/02 09:46:34;;;;;;;9.52;7.25;;;7.90;91.00;;;;;;5041204;28;20763;-48
2022/12/02 09:49:03;;;;;;;12.93;8.02;;;7.90;91.00;;;;;;5024724;28;20554;-50
2022/12/02 09:51:33;;;;;;;25.75;13.43;;;7.90;91.00;;;;;;5020395;28;20213;-48
2022/12/02 09:54:04;;;;;;;23.15;13.02;;;7.90;88.60;;;;;;5024019;28;20274;-49
2022/12/02 09:56:33;;;;;;;18.00;10.57;;;7.90;88.70;;;;;;5022145;28;20189;-52
2022/12/02 09:59:04;;;;;;;20.00;12.55;;;7.80;89.90;;;;;;5031369;28;20293;-50
2022/12/02 10:01:33;;;;;;;16.70;11.50;;;7.80;90.10;;;;;;5027090;28;20217;-48
2022/12/02 10:04:01;;;;;;;19.10;11.05;;;7.80;90.10;;;;;;5019565;28;20723;-49
2022/12/02 10:06:30;;;;;;;17.42;11.05;;;7.80;90.20;;;;;;5015899;28;20194;-50
2022/12/02 10:09:00;;;;;;;16.45;9.93;;;7.80;90.20;;;;;;5040640;28;20197;-50
2022/12/02 10:11:32;;;;;;;20.77;10.48;;;7.80;90.20;;;;;;5013843;28;20225;-50
2022/12/02 10:14:05;;;;;;;15.02;10.15;;;7.80;90.20;;;;;;5004128;28;20253;-49
2022/12/02 10:16:35;;;;;;;17.27;9.38;;;7.80;90.20;;;;;;4997088;28;20746;-50
2022/12/02 10:19:05;;;;;;;15.38;10.02;;;7.80;90.30;;;;;;4999842;28;20399;-48
2022/12/02 10:21:34;;;;;;;18.58;10.82;;;7.80;90.20;;;;;;5004289;28;20228;-49
2022/12/02 10:24:06;;;;;;;22.75;11.07;;;7.80;90.20;;;;;;5017873;28;20202;-49
2022/12/02 10:26:46;;;;;;;15.80;9.55;;;7.80;90.20;;;;;;5003333;28;20201;-50
2022/12/02 10:29:18;;;;;;;17.10;8.93;;;7.80;90.20;;;;;;5003619;28;20205;-49
2022/12/02 10:31:54;;;;;;;15.05;9.18;;;7.80;90.20;;;;;;5014764;28;20687;-51
2022/12/02 10:34:24;;;;;;;21.40;9.18;;;7.80;90.30;;;;;;5015066;28;20248;-49
2022/12/02 10:36:54;;;;;;;15.02;10.30;;;7.80;90.20;;;;;;5041826;28;20228;-49
2022/12/02 10:39:25;;;;;;;13.52;9.02;;;7.80;90.30;;;;;;5019761;28;20204;-49
2022/12/02 10:42:19;;;;;;;14.20;8.80;;;7.80;90.30;;;;;;5023468;28;20230;-50
2022/12/02 10:45:10;;;;;;;16.52;8.93;;;7.80;90.30;;;;;;5021196;28;20267;-50
2022/12/02 10:47:40;;;;;;;15.63;9.93;;;7.80;90.30;;;;;;5007905;28;20427;-50
2022/12/02 10:50:18;;;;;;;17.98;9.48;;;7.80;90.30;;;;;;5008242;28;20289;-50
2022/12/02 10:52:49;;;;;;;16.58;10.13;;;7.80;90.30;;;;;;5019511;28;20707;-49
2022/12/02 10:55:19;;;;;;;12.63;8.35;;;7.80;90.30;;;;;;5007878;28;20225;-51
2022/12/02 10:57:50;;;;;;;14.45;8.45;;;7.80;90.30;;;;;;5002584;28;20254;-53
2022/12/02 11:00:21;;;;;;;16.00;9.18;;;7.80;90.30;;;;;;5016220;28;20589;-50
2022/12/02 11:02:51;;;;;;;13.13;8.32;;;7.80;90.30;;;;;;5013079;28;20190;-50
2022/12/02 11:05:22;;;;;;;14.27;7.43;;;7.80;90.30;;;;;;5004770;28;20198;-51
2022/12/02 11:07:53;;;;;;;12.20;9.25;;;7.80;90.30;;;;;;5005622;28;20306;-53
2022/12/02 11:10:24;;;;;;;14.93;7.38;;;7.80;90.30;;;;;;5007812;28;20210;-52
2022/12/02 11:13:07;;;;;;;14.07;7.85;;;7.80;90.30;;;;;;5010198;28;20194;-53
2022/12/02 11:15:40;;;;;;;10.77;7.70;;;7.80;90.30;;;;;;5001561;28;20198;-51
2022/12/02 11:18:11;;;;;;;14.77;8.30;;;7.80;90.30;;;;;;5016106;28;20193;-52
2022/12/02 11:20:45;;;;;;;12.27;7.20;;;7.80;90.30;;;;;;5004154;28;20245;-50
2022/12/02 11:23:21;;;;;;;12.02;8.30;;;7.80;90.30;;;;;;5011247;28;20304;-52
2022/12/02 11:26:09;;;;;;;12.35;7.95;;;7.80;90.40;;;;;;5019064;28;20196;-51
2022/12/02 11:29:06;;;;;;;10.82;8.43;;;7.80;90.30;;;;;;5030867;28;20501;-51
2022/12/02 11:31:34;;;;;;;15.38;7.88;;;7.80;90.30;;;;;;5048150;28;20223;-51
2022/12/02 11:34:27;;;;;;;15.60;8.60;;;7.80;90.40;;;;;;5025320;28;20221;-51
2022/12/02 11:37:35;;;;;;;14.65;8.35;;;7.80;90.30;;;;;;5026699;28;20720;-50
2022/12/02 11:40:27;;;;;;;12.73;7.57;;;7.80;90.30;;;;;;5033549;28;20193;-50
2022/12/02 11:43:40;;;;;;;13.82;8.35;;;7.80;90.40;;;;;;5029281;28;20423;-50
2022/12/02 11:46:12;;;;;;;12.65;7.72;;;7.80;90.40;;;;;;5052968;28;20213;-53
2022/12/02 11:48:45;;;;;;;11.68;7.47;;;7.80;90.40;;;;;;5036300;28;20327;-51
2022/12/02 11:51:33;;;;;;;17.17;9.07;;;7.80;90.40;;;;;;5031338;28;20300;-51
2022/12/02 11:54:02;;;;;;;13.07;8.18;;;7.80;90.40;;;;;;5026399;28;20220;-51
2022/12/02 11:56:38;;;;;;;13.85;7.45;;;7.80;90.40;;;;;;5024506;28;20243;-49
2022/12/02 11:59:19;;;;;;;11.20;8.05;;;7.80;90.40;;;;;;5022373;28;20224;-53
2022/12/02 12:01:49;;;;;;;12.57;8.13;;;7.80;90.40;;;;;;5015417;28;20303;-49
2022/12/02 12:04:27;;;;;;;11.88;7.85;;;7.80;90.40;;;;;;5004406;28;20816;-52
2022/12/02 12:06:57;;;;;;;10.45;7.68;;;7.80;90.40;;;;;;5012037;28;20563;-51
2022/12/02 12:09:27;;;;;;;11.52;7.70;;;7.80;90.40;;;;;;5004019;28;20187;-51
2022/12/02 12:12:13;;;;;;;11.93;8.50;;;7.80;90.40;;;;;;5009371;28;20221;-53
2022/12/02 12:14:56;;;;;;;14.60;7.55;;;7.80;90.50;;;;;;5001542;28;20225;-53
2022/12/02 12:17:43;;;;;;;11.27;7.57;;;7.80;90.50;;;;;;5004166;28;20225;-52
2022/12/02 12:20:44;;;;;;;18.02;10.27;;;7.80;90.40;;;;;;5019871;28;20205;-52
2022/12/02 12:23:32;;;;;;;11.15;7.88;;;7.80;90.50;;;;;;5003161;28;20232;-50
2022/12/02 12:26:02;;;;;;;13.82;8.55;;;7.70;90.40;;;;;;5003030;28;20813;-54
2022/12/02 12:28:32;;;;;;;15.90;9.75;;;7.70;90.50;;;;;;4997831;28;20209;-52
2022/12/02 12:31:02;;;;;;;15.05;9.07;;;7.70;90.40;;;;;;5001462;28;20705;-51
2022/12/02 12:33:33;;;;;;;16.25;10.27;;;7.70;91.00;;;;;;5009581;28;20225;-52
2022/12/02 12:36:01;;;;;;;14.90;8.43;;;7.70;90.50;;;;;;4991389;28;20698;-52
2022/12/02 12:38:30;;;;;;;13.95;8.73;;;7.70;90.60;;;;;;5005250;28;20190;-51
2022/12/02 12:40:59;;;;;;;12.27;7.97;;;7.70;90.50;;;;;;5004058;28;20221;-53
2022/12/02 12:43:28;;;;;;;16.15;10.23;;;7.70;90.50;;;;;;5008430;28;20232;-53
2022/12/02 12:45:57;;;;;;;13.90;8.65;;;7.70;90.50;;;;;;5005137;28;20216;-50
2022/12/02 12:48:25;;;;;;;20.33;12.73;;;7.70;90.50;;;;;;5020145;28;21668;-50
2022/12/02 12:50:56;;;;;;;17.70;12.30;;;7.70;90.50;;;;;;5016174;28;20210;-49
2022/12/02 12:53:25;;;;;;;21.58;13.90;;;7.70;90.50;;;;;;5005143;28;20589;-49
2022/12/02 12:55:54;;;;;;;19.42;12.15;;;7.70;90.50;;;;;;5004839;28;20206;-50
2022/12/02 12:58:29;;;;;;;17.33;11.60;;;7.70;90.60;;;;;;5004449;28;20194;-50
2022/12/02 13:00:58;;;;;;;18.20;11.25;;;7.70;90.60;;;;;;5002152;28;20272;-50
2022/12/02 13:03:26;;;;;;;15.10;10.68;;;7.70;90.60;;;;;;4997007;28;20216;-50
2022/12/02 13:05:56;;;;;;;17.40;12.45;;;7.70;90.60;;;;;;5013214;28;20209;-50
2022/12/02 13:08:25;;;;;;;18.17;12.50;;;7.70;90.60;;;;;;5010229;28;20633;-49
2022/12/02 13:10:57;;;;;;;16.15;10.52;;;7.60;90.60;;;;;;5009000;28;20536;-49
2022/12/02 13:13:28;;;;;;;19.48;11.35;;;7.70;90.60;;;;;;5002152;28;20662;-50
2022/12/02 13:15:58;;;;;;;16.35;10.63;;;7.70;91.10;;;;;;5010593;28;20437;-49
2022/12/02 13:18:29;;;;;;;13.20;9.48;;;7.60;90.60;;;;;;5025017;28;20202;-50